Date,TemperatureHighF,TemperatureAvgF,TemperatureLowF,DewpointHighF,DewpointAvgF,DewpointLowF,HumidityHigh,HumidityAvg,HumidityLow,PressureMaxIn,PressureMinIn,WindSpeedMaxMPH,WindSpeedAvgMPH,GustSpeedMaxMPH,PrecipitationSumIn
2013-3-1,54.5,51.6,50.0,53.0,50.7,50.0,99,96,92,30.34,30.26,7,1,13,0.19
2013-3-2,56.5,49.5,38.8,53.0,47.2,38.0,97,92,82,30.26,30.03,7,1,13,0.03
2013-3-3,49.7,41.2,34.1,40.0,36.3,33.0,98,84,52,30.30,30.19,6,1,11,0.00
2013-3-4,51.4,40.7,32.7,39.0,34.3,31.0,99,80,46,30.29,29.92,6,1,10,0.01
2013-3-5,49.6,42.5,37.1,43.0,39.4,35.0,97,89,73,29.92,29.72,3,0,5,0.16
2013-3-6,43.9,42.0,39.3,42.0,40.7,39.0,98,95,89,29.88,29.57,10,1,17,0.30
2013-3-7,51.8,44.6,38.0,45.0,41.9,38.0,99,91,71,30.08,29.88,5,0,13,0.03
2013-3-8,52.3,43.2,35.5,42.0,39.6,35.0,99,88,64,30.23,30.07,7,1,8,0.00
2013-3-9,54.6,41.5,32.0,43.0,38.1,32.0,99,89,62,30.49,30.24,6,1,8,0.01
2013-3-10,48.6,42.1,36.0,44.0,40.4,36.0,99,93,77,30.48,30.41,4,0,8,0.01
2013-3-11,51.3,46.4,42.9,46.0,44.0,42.0,98,91,76,30.43,30.14,4,1,5,0.06
2013-3-12,55.3,50.5,46.8,53.0,49.5,46.0,98,96,91,30.14,30.05,8,1,12,0.26
2013-3-13,53.6,50.9,49.1,51.0,49.4,47.0,98,95,88,30.17,30.07,5,1,14,0.03
2013-3-14,56.6,49.8,47.5,48.0,47.4,46.0,98,91,69,30.13,30.01,9,1,15,0.06
2013-3-15,59.4,52.1,47.1,52.0,48.8,46.0,98,89,74,30.18,30.11,11,1,14,0.01
2013-3-16,52.7,46.5,36.5,48.0,42.7,35.0,95,87,67,30.11,29.85,8,1,19,0.04
2013-3-17,52.1,40.6,32.1,40.0,35.6,32.0,99,84,54,30.17,29.96,10,1,16,0.08
2013-3-18,52.6,44.0,37.3,42.0,37.6,34.0,93,79,49,30.23,30.07,9,2,20,0.00
2013-3-19,53.3,42.2,35.6,45.0,38.5,34.0,98,88,53,30.22,29.59,5,0,8,0.69
2013-3-20,51.2,46.6,39.1,50.0,42.8,33.0,99,87,67,29.96,29.34,16,3,21,0.95
2013-3-21,49.9,39.9,34.3,40.0,35.8,33.0,98,86,57,30.20,30.00,8,1,10,0.20
2013-3-22,46.7,38.1,31.3,38.0,33.4,31.0,99,84,58,30.37,30.20,7,1,9,0.05
2013-3-23,49.8,39.8,34.2,38.0,33.4,30.0,98,80,49,30.39,30.29,4,1,8,0.00
2013-3-24,54.7,41.1,30.8,38.0,33.6,28.0,99,78,37,30.29,30.11,4,0,4,0.00
2013-3-25,59.9,47.3,33.9,39.0,34.8,31.0,98,67,34,30.12,29.92,2,0,6,0.00
2013-3-26,58.8,50.8,43.9,43.0,40.1,36.0,85,68,53,30.01,29.94,5,0,7,0.00
2013-3-27,56.3,49.1,43.5,47.0,43.8,42.0,96,83,62,29.98,29.93,5,0,8,0.00
2013-3-28,61.9,50.4,43.0,51.0,46.8,42.0,98,88,61,30.13,29.98,4,0,7,0.13
2013-3-29,63.2,51.5,42.2,50.0,45.7,42.0,98,83,57,30.24,30.14,5,1,9,0.02
2013-3-30,64.7,51.4,38.0,49.0,43.9,38.0,99,78,50,30.25,30.06,11,2,12,0.00
2013-3-31,69.0,54.1,40.7,47.0,43.8,40.0,98,72,41,30.06,29.90,6,1,8,0.00